Time;durP1;ratioP1;P1;durP2;ratioP2;P2;SDS_P1;SDS_P2;PMS_P1;PMS_P2;Temp;Humidity;BMP_temperature;BMP_pressure;BME280_temperature;BME280_humidity;BME280_pressure;Samples;Min_cycle;Max_cycle;Signal;HPM_P1;HPM_P2
2023/03/03 00:01:06;;;;;;;5.50;3.60;;;;;;;5.06;64.70;94995.31;5106163;28;20355;-79
2023/03/03 00:03:32;;;;;;;5.97;3.55;;;;;;;5.16;64.66;95001.88;5103752;28;20055;-79
2023/03/03 00:05:58;;;;;;;5.35;3.50;;;;;;;5.22;64.09;95002.25;5105991;28;20035;-79
2023/03/03 00:08:24;;;;;;;4.38;3.28;;;;;;;5.18;63.94;95004.97;5103966;28;20076;-81
2023/03/03 00:10:50;;;;;;;4.22;3.25;;;;;;;5.13;64.05;95005.41;5104176;28;20023;-80
2023/03/03 00:13:24;;;;;;;5.78;3.13;;;;;;;5.09;64.34;94993.75;5104517;28;20172;-80
2023/03/03 00:15:50;;;;;;;5.55;3.58;;;;;;;5.03;64.54;94987.94;5086858;28;20019;-78
2023/03/03 00:18:35;;;;;;;4.32;3.70;;;;;;;5.00;64.78;94983.31;5087157;28;20481;-79
2023/03/03 00:21:02;;;;;;;6.00;3.53;;;;;;;5.03;64.60;94987.16;5103512;28;20050;-80
2023/03/03 00:23:34;;;;;;;4.30;3.03;;;;;;;4.99;65.21;94992.66;5104105;28;20031;-79
2023/03/03 00:25:59;;;;;;;3.85;3.00;;;;;;;5.01;64.90;94990.28;5103608;28;20027;-78
2023/03/03 00:28:40;;;;;;;5.35;3.72;;;;;;;5.03;64.89;94990.66;5105108;28;20560;-79
2023/03/03 00:31:15;;;;;;;4.47;3.55;;;;;;;5.04;64.69;94989.47;5087010;28;20023;-80
2023/03/03 00:34:16;;;;;;;4.68;3.35;;;;;;;5.05;64.78;94984.84;5103406;28;20532;-80
2023/03/03 00:36:42;;;;;;;6.00;3.90;;;;;;;5.00;64.87;94986.03;5104069;28;20045;-80
2023/03/03 00:39:33;;;;;;;5.85;4.13;;;;;;;5.02;65.13;94986.41;5105143;28;20023;-79
2023/03/03 00:41:59;;;;;;;5.40;4.18;;;;;;;5.09;64.96;94979.34;5103267;28;20051;-79
2023/03/03 00:44:56;;;;;;;4.82;3.85;;;;;;;5.12;64.98;94975.84;5104213;28;20070;-81
2023/03/03 00:47:30;;;;;;;5.15;3.90;;;;;;;5.13;64.97;94975.41;5102956;28;20034;-79
2023/03/03 00:50:04;;;;;;;5.32;3.72;;;;;;;5.05;65.01;94971.97;5086559;28;20089;-79
2023/03/03 00:52:33;;;;;;;5.40;4.15;;;;;;;5.03;65.07;94957.19;5103161;28;20144;-80
2023/03/03 00:54:59;;;;;;;4.97;3.95;;;;;;;5.03;65.46;94957.19;5103507;28;20040;-80
2023/03/03 00:57:24;;;;;;;5.28;4.45;;;;;;;4.95;65.14;94956.47;5105156;28;20104;-80
2023/03/03 00:59:50;;;;;;;5.13;3.78;;;;;;;4.93;65.59;94952.59;5102736;28;20077;-80
2023/03/03 01:02:15;;;;;;;5.88;3.90;;;;;;;4.80;65.98;94946.84;5103721;28;20157;-81
2023/03/03 01:04:42;;;;;;;6.68;5.07;;;;;;;4.70;66.55;94939.50;5104297;28;20032;-79
2023/03/03 01:07:08;;;;;;;6.30;4.13;;;;;;;4.67;66.74;94935.66;5103501;28;20490;-78
2023/03/03 01:09:33;;;;;;;6.32;4.28;;;;;;;4.66;66.44;94922.44;5104103;28;20055;-79
2023/03/03 01:11:59;;;;;;;4.32;3.58;;;;;;;4.79;66.25;94939.84;5103222;28;20026;-80
2023/03/03 01:14:24;;;;;;;6.38;4.53;;;;;;;4.80;66.45;94941.41;5086230;28;20020;-79
2023/03/03 01:16:49;;;;;;;5.82;4.47;;;;;;;4.83;66.24;94937.13;5085683;28;20031;-79
2023/03/03 01:19:15;;;;;;;5.75;4.38;;;;;;;4.86;66.15;94941.75;5103625;28;20030;-79
2023/03/03 01:21:40;;;;;;;5.88;4.88;;;;;;;4.83;66.51;94937.13;5102395;28;20074;-79
2023/03/03 01:24:06;;;;;;;7.20;4.75;;;;;;;4.86;66.14;94931.63;5086719;28;20145;-79
2023/03/03 01:26:31;;;;;;;6.18;4.40;;;;;;;4.91;66.21;94936.66;5106619;28;20552;-80
2023/03/03 01:28:56;;;;;;;6.70;4.47;;;;;;;4.96;66.04;94933.50;5089809;28;20032;-80
2023/03/03 01:31:23;;;;;;;6.55;4.78;;;;;;;5.00;65.64;94942.44;5106890;28;20028;-79
2023/03/03 01:33:48;;;;;;;5.75;4.15;;;;;;;5.00;65.76;94934.25;5106604;28;20185;-80
2023/03/03 01:36:13;;;;;;;9.07;5.15;;;;;;;4.96;65.84;94938.94;5107301;28;20023;-80
2023/03/03 01:38:39;;;;;;;5.90;4.25;;;;;;;4.93;65.96;94942.50;5106589;28;20032;-78
2023/03/03 01:41:04;;;;;;;6.90;4.82;;;;;;;4.96;65.87;94938.19;5107027;28;20114;-79
2023/03/03 01:43:31;;;;;;;6.43;4.28;;;;;;;4.99;66.01;94935.44;5110353;28;20063;-79
2023/03/03 01:45:57;;;;;;;8.32;5.05;;;;;;;4.97;65.88;94932.31;5106546;28;20417;-79
2023/03/03 01:48:42;;;;;;;7.80;4.32;;;;;;;5.00;65.96;94928.03;5108144;28;20028;-80
2023/03/03 01:51:23;;;;;;;7.18;4.82;;;;;;;4.98;65.84;94931.16;5106594;28;20035;-80
2023/03/03 01:54:19;;;;;;;7.18;4.70;;;;;;;5.08;65.52;94932.25;5113015;28;20452;-80
2023/03/03 01:56:45;;;;;;;6.00;4.40;;;;;;;5.07;65.22;94912.41;5085017;28;20055;-79
2023/03/03 01:59:16;;;;;;;5.90;4.72;;;;;;;5.18;65.23;94922.44;5107186;28;20039;-82
2023/03/03 02:01:42;;;;;;;6.10;4.38;;;;;;;5.17;65.16;94927.13;5106661;28;20473;-80
2023/03/03 02:04:07;;;;;;;6.07;4.20;;;;;;;5.21;64.93;94921.63;5106254;28;20168;-79
2023/03/03 02:06:37;;;;;;;8.07;5.05;;;;;;;5.27;64.96;94928.19;5106695;28;20403;-79
2023/03/03 02:09:28;;;;;;;6.55;4.53;;;;;;;5.23;64.94;94927.47;5106243;28;20038;-79
2023/03/03 02:11:58;;;;;;;5.82;4.68;;;;;;;5.19;64.82;94922.03;5106446;28;20061;-80
2023/03/03 02:14:24;;;;;;;6.88;5.30;;;;;;;5.19;64.73;94915.81;5089189;28;20109;-80
2023/03/03 02:16:49;;;;;;;8.18;5.43;;;;;;;5.28;64.70;94924.31;5106111;28;20111;-79
2023/03/03 02:19:41;;;;;;;6.78;5.82;;;;;;;5.33;64.60;94927.38;5107788;28;20102;-79
2023/03/03 02:22:06;;;;;;;7.63;5.43;;;;;;;5.41;64.13;94913.69;5094594;28;20051;-78
2023/03/03 02:25:01;;;;;;;7.10;4.82;;;;;;;5.43;63.94;94919.50;5106830;28;20069;-80
2023/03/03 02:27:29;;;;;;;5.70;4.05;;;;;;;5.46;63.51;94921.41;5103960;28;20142;-81
2023/03/03 02:29:54;;;;;;;6.47;4.57;;;;;;;5.43;63.54;94923.00;5105548;28;20493;-79
2023/03/03 02:32:19;;;;;;;5.43;3.72;;;;;;;5.40;63.64;94920.31;5105813;28;20050;-80
2023/03/03 02:34:50;;;;;;;5.07;3.67;;;;;;;5.38;63.38;94915.25;5105518;28;20031;-79
2023/03/03 02:37:16;;;;;;;6.55;3.85;;;;;;;5.42;63.52;94917.94;5088566;28;20498;-79
2023/03/03 02:39:42;;;;;;;5.35;3.85;;;;;;;5.39;63.41;94916.00;5105338;28;20023;-79
2023/03/03 02:42:24;;;;;;;5.30;3.85;;;;;;;5.33;63.58;94916.47;5105721;28;20046;-79
2023/03/03 02:44:50;;;;;;;5.95;4.97;;;;;;;5.39;63.15;94924.19;5088820;28;20035;-79
2023/03/03 02:47:15;;;;;;;4.35;3.55;;;;;;;5.31;63.43;94926.22;5088819;28;20024;-80
2023/03/03 02:49:42;;;;;;;6.45;4.00;;;;;;;5.22;63.61;94918.53;5110864;28;20032;-80
2023/03/03 02:52:09;;;;;;;4.47;3.75;;;;;;;5.26;63.80;94921.19;5105156;28;20128;-79
2023/03/03 02:54:35;;;;;;;4.78;3.50;;;;;;;5.22;63.47;94915.78;5106009;28;20504;-79
2023/03/03 02:57:01;;;;;;;4.68;3.53;;;;;;;5.16;63.63;94916.59;5104768;28;20084;-81
2023/03/03 02:59:27;;;;;;;4.60;3.20;;;;;;;5.11;63.98;94911.63;5105554;28;20032;-79
2023/03/03 03:01:53;;;;;;;5.15;3.63;;;;;;;5.12;63.78;94911.19;5105136;28;20035;-79
2023/03/03 03:04:24;;;;;;;4.40;3.80;;;;;;;5.05;64.17;94911.25;5104954;28;20024;-80
2023/03/03 03:06:50;;;;;;;5.72;3.97;;;;;;;5.05;64.26;94903.09;5088064;28;20031;-80
2023/03/03 03:09:17;;;;;;;5.25;4.00;;;;;;;5.06;64.21;94907.34;5104785;28;20076;-80
2023/03/03 03:11:43;;;;;;;5.03;4.05;;;;;;;5.10;64.00;94904.59;5088786;28;20036;-78
2023/03/03 03:14:10;;;;;;;4.55;3.95;;;;;;;5.06;64.26;94905.41;5087436;28;20413;-79
2023/03/03 03:16:36;;;;;;;5.63;3.95;;;;;;;5.09;63.92;94903.03;5105565;28;20099;-79
2023/03/03 03:19:02;;;;;;;5.65;4.30;;;;;;;5.11;64.15;94906.16;5104254;28;20110;-80
2023/03/03 03:21:28;;;;;;;5.28;4.28;;;;;;;5.12;64.42;94905.75;5104888;28;20046;-78
2023/03/03 03:23:54;;;;;;;5.32;4.15;;;;;;;5.05;64.20;94895.69;5104764;28;20045;-80
2023/03/03 03:26:20;;;;;;;7.05;4.60;;;;;;;5.13;64.26;94899.13;5104467;28;20019;-79
2023/03/03 03:28:46;;;;;;;6.70;4.32;;;;;;;5.15;64.26;94904.16;5105123;28;20067;-79
2023/03/03 03:31:12;;;;;;;5.82;4.22;;;;;;;5.15;64.54;94906.88;5087021;28;20023;-79
2023/03/03 03:33:37;;;;;;;6.47;4.07;;;;;;;5.18;64.23;94897.91;5087934;28;20028;-79
2023/03/03 03:36:05;;;;;;;6.75;4.28;;;;;;;5.11;64.25;94898.75;5087212;28;20146;-81
2023/03/03 03:38:31;;;;;;;6.38;4.40;;;;;;;5.15;64.59;94896.75;5087900;28;20920;-79
2023/03/03 03:40:58;;;;;;;7.00;4.50;;;;;;;5.11;64.74;94895.25;5105632;28;20096;-80
2023/03/03 03:43:24;;;;;;;6.05;4.20;;;;;;;5.18;64.92;94895.19;5104214;28;20593;-80
2023/03/03 03:45:49;;;;;;;5.88;4.25;;;;;;;5.20;64.74;94892.81;5087374;28;20027;-80
2023/03/03 03:48:18;;;;;;;6.45;5.13;;;;;;;5.15;64.78;94896.75;5102934;28;20050;-80
2023/03/03 03:50:43;;;;;;;6.63;4.65;;;;;;;5.08;65.33;94885.91;5104904;28;20028;-80
2023/03/03 03:53:09;;;;;;;7.82;5.13;;;;;;;4.96;65.39;94887.19;5087110;28;20019;-81
2023/03/03 03:55:34;;;;;;;7.63;4.80;;;;;;;4.84;66.00;94886.91;5107554;28;20038;-81
2023/03/03 03:58:00;;;;;;;7.35;5.15;;;;;;;4.77;66.52;94885.78;5104000;28;20405;-81
2023/03/03 04:00:25;;;;;;;7.95;5.40;;;;;;;4.84;66.49;94889.63;5104265;28;20140;-81
2023/03/03 04:02:51;;;;;;;7.82;5.38;;;;;;;4.77;66.51;94890.47;5104078;28;20042;-79
2023/03/03 04:05:16;;;;;;;7.47;5.25;;;;;;;4.76;66.71;94886.19;5086759;28;20028;-80
2023/03/03 04:07:42;;;;;;;8.38;5.57;;;;;;;4.70;66.99;94885.03;5087367;28;20406;-80
2023/03/03 04:10:08;;;;;;;8.75;5.38;;;;;;;4.75;67.41;94890.06;5103995;28;20024;-79
2023/03/03 04:12:37;;;;;;;8.80;5.40;;;;;;;4.84;66.94;94881.47;5104456;28;20496;-79
2023/03/03 04:15:07;;;;;;;8.55;6.20;;;;;;;4.87;67.14;94892.31;5105025;28;20380;-80
2023/03/03 04:17:33;;;;;;;11.32;6.25;;;;;;;4.90;66.78;94885.31;5104097;28;20031;-79
2023/03/03 04:19:58;;;;;;;9.55;6.35;;;;;;;4.78;66.68;94881.88;5103678;28;20031;-79
2023/03/03 04:22:24;;;;;;;9.05;6.40;;;;;;;4.84;67.03;94882.22;5103428;28;20019;-79
2023/03/03 04:24:49;;;;;;;12.38;6.45;;;;;;;4.76;66.95;94886.19;5103863;28;20118;-78
2023/03/03 04:27:14;;;;;;;8.85;6.85;;;;;;;4.68;67.50;94880.00;5103474;28;20404;-79
2023/03/03 04:29:40;;;;;;;9.98;7.00;;;;;;;4.68;67.66;94888.16;5104830;28;20031;-79
2023/03/03 04:32:06;;;;;;;8.50;6.20;;;;;;;4.68;67.64;94890.13;5103179;28;20486;-79
2023/03/03 04:34:32;;;;;;;10.25;6.82;;;;;;;4.63;67.89;94883.16;5103858;28;20080;-80
2023/03/03 04:36:57;;;;;;;10.77;6.90;;;;;;;4.64;67.75;94876.53;5103576;28;20027;-78
2023/03/03 04:39:22;;;;;;;11.50;7.50;;;;;;;4.72;67.92;94880.00;5103818;28;20405;-80
2023/03/03 04:41:48;;;;;;;10.32;7.25;;;;;;;4.72;67.92;94886.22;5103568;28;20487;-79
2023/03/03 04:44:13;;;;;;;9.18;6.40;;;;;;;4.77;67.92;94877.63;5105134;28;20423;-80
2023/03/03 04:46:40;;;;;;;10.10;7.30;;;;;;;4.90;67.76;94883.34;5103815;28;20102;-80
2023/03/03 04:49:07;;;;;;;8.40;6.15;;;;;;;4.95;67.27;94879.44;5103376;28;20039;-78
2023/03/03 04:51:33;;;;;;;9.63;6.80;;;;;;;4.97;67.26;94872.38;5103921;28;20026;-79
2023/03/03 04:53:58;;;;;;;11.20;7.25;;;;;;;5.04;67.08;94883.22;5103223;28;20027;-78
2023/03/03 04:56:24;;;;;;;12.80;7.57;;;;;;;5.02;67.11;94874.69;5086652;28;20028;-79
2023/03/03 04:58:49;;;;;;;10.43;6.95;;;;;;;5.07;66.80;94876.22;5108760;28;20092;-79
2023/03/03 05:01:14;;;;;;;10.02;6.90;;;;;;;5.11;66.96;94885.13;5111461;28;20224;-79
2023/03/03 05:03:40;;;;;;;10.07;6.82;;;;;;;5.18;66.87;94889.75;5090591;28;20023;-79
2023/03/03 05:06:06;;;;;;;10.02;7.80;;;;;;;5.18;66.90;94889.75;5108755;28;20438;-78
2023/03/03 05:08:31;;;;;;;11.07;6.97;;;;;;;5.26;66.58;94883.81;5107958;28;20087;-78
2023/03/03 05:10:58;;;;;;;11.93;7.15;;;;;;;5.35;66.63;94885.31;5090049;28;20032;-78
2023/03/03 05:13:26;;;;;;;11.10;7.07;;;;;;;5.37;66.10;94893.84;5107944;28;20097;-78
2023/03/03 05:15:56;;;;;;;11.95;7.63;;;;;;;5.39;65.78;94895.00;5107158;28;20027;-78
2023/03/03 05:18:23;;;;;;;12.85;8.07;;;;;;;5.42;65.99;94890.69;5107667;28;20030;-78
2023/03/03 05:20:49;;;;;;;13.45;7.95;;;;;;;5.42;65.93;94891.44;5107243;28;20454;-78
2023/03/03 05:23:15;;;;;;;13.60;8.52;;;;;;;5.46;65.97;94892.19;5107161;28;20019;-78
2023/03/03 05:25:41;;;;;;;12.65;8.38;;;;;;;5.43;66.15;94893.00;5107330;28;20052;-78
2023/03/03 05:28:07;;;;;;;17.60;8.13;;;;;;;5.42;66.08;94880.56;5106894;28;20168;-78
2023/03/03 05:30:33;;;;;;;11.73;8.43;;;;;;;5.51;66.05;94889.03;5108716;28;20032;-78
2023/03/03 05:32:59;;;;;;;10.70;7.90;;;;;;;5.39;65.65;94886.81;5089500;28;20100;-79
2023/03/03 05:35:25;;;;;;;14.15;8.80;;;;;;;5.41;65.68;94892.63;5107490;28;20481;-78
2023/03/03 05:37:51;;;;;;;12.57;8.52;;;;;;;5.35;65.72;94899.72;5089654;28;20489;-77
2023/03/03 05:40:18;;;;;;;11.13;7.47;;;;;;;5.34;66.05;94900.91;5106666;28;20070;-78
2023/03/03 05:42:44;;;;;;;12.93;8.35;;;;;;;5.37;65.88;94893.84;5108355;28;20032;-78
2023/03/03 05:45:09;;;;;;;15.98;10.07;;;;;;;5.28;66.00;94897.06;5089773;28;20024;-78
2023/03/03 05:47:35;;;;;;;12.02;8.88;;;;;;;5.21;66.42;94895.16;5090224;28;20131;-78
2023/03/03 05:50:00;;;;;;;13.07;8.70;;;;;;;5.24;66.94;94909.94;5106491;28;20023;-79
2023/03/03 05:52:27;;;;;;;16.02;8.82;;;;;;;5.29;66.77;94904.06;5090290;28;20024;-78
2023/03/03 05:54:52;;;;;;;16.35;10.02;;;;;;;5.28;66.10;94907.97;5106107;28;20031;-78
2023/03/03 05:57:18;;;;;;;14.80;8.88;;;;;;;5.12;66.50;94899.53;5106639;28;20493;-77
2023/03/03 05:59:43;;;;;;;12.13;8.23;;;;;;;5.06;66.82;94910.84;5089424;28;20113;-80
2023/03/03 06:02:09;;;;;;;13.32;8.63;;;;;;;5.11;66.99;94906.94;5106188;28;20039;-78
2023/03/03 06:04:34;;;;;;;15.85;8.80;;;;;;;5.17;66.69;94912.72;5110554;28;20028;-77
2023/03/03 06:06:59;;;;;;;15.05;10.05;;;;;;;5.04;67.16;94907.75;5110932;28;20031;-79
2023/03/03 06:09:25;;;;;;;13.38;8.93;;;;;;;5.00;67.33;94906.25;5106947;28;20031;-78
2023/03/03 06:11:52;;;;;;;14.35;8.60;;;;;;;4.97;67.43;94915.97;5106056;28;20474;-77
2023/03/03 06:14:20;;;;;;;15.80;9.45;;;;;;;5.01;67.72;94922.19;5106607;28;20130;-76
2023/03/03 06:16:46;;;;;;;12.30;8.18;;;;;;;5.01;67.57;94914.00;5107138;28;20019;-78
2023/03/03 06:19:12;;;;;;;16.35;9.85;;;;;;;5.06;67.79;94912.81;5107528;28;20076;-77
2023/03/03 06:21:38;;;;;;;13.60;8.15;;;;;;;5.15;67.48;94912.34;5088814;28;20047;-81
2023/03/03 06:24:04;;;;;;;11.77;8.00;;;;;;;5.15;67.03;94918.56;5106059;28;20429;-76
2023/03/03 06:26:30;;;;;;;12.77;8.10;;;;;;;5.08;66.93;94915.91;5106865;28;20020;-77
2023/03/03 06:28:56;;;;;;;14.82;10.15;;;;;;;4.97;67.21;94905.06;5105397;28;20039;-76
2023/03/03 06:31:21;;;;;;;13.88;8.25;;;;;;;5.07;67.65;94915.13;5106451;28;20042;-76
2023/03/03 06:33:47;;;;;;;11.15;7.72;;;;;;;5.23;67.35;94919.28;5105406;28;20044;-77
2023/03/03 06:36:12;;;;;;;12.13;8.15;;;;;;;5.21;66.59;94922.41;5106055;28;20038;-76
2023/03/03 06:38:37;;;;;;;13.65;8.00;;;;;;;5.27;66.90;94914.56;5106165;28;20425;-77
2023/03/03 06:41:06;;;;;;;13.85;8.27;;;;;;;5.31;66.81;94921.53;5088927;28;20104;-77
2023/03/03 06:43:32;;;;;;;11.32;7.80;;;;;;;5.32;66.93;94919.59;5089679;28;20489;-77
2023/03/03 06:45:58;;;;;;;16.50;9.70;;;;;;;5.40;66.68;94928.50;5105413;28;20055;-77
2023/03/03 06:48:24;;;;;;;13.18;9.02;;;;;;;5.46;66.52;94918.69;5107712;28;20070;-78
2023/03/03 06:50:49;;;;;;;13.13;8.23;;;;;;;5.44;66.27;94921.03;5106455;28;20020;-78
2023/03/03 06:53:16;;;;;;;15.25;9.50;;;;;;;5.47;66.59;94929.19;5107422;28;20035;-77
2023/03/03 06:55:43;;;;;;;12.70;7.13;;;;;;;5.53;65.81;94930.31;5107265;28;20039;-77
2023/03/03 06:58:19;;;;;;;12.23;7.90;;;;;;;5.51;66.25;94921.75;5105268;28;20024;-77
2023/03/03 07:00:53;;;;;;;11.55;7.38;;;;;;;5.58;65.37;94921.69;5088679;28;20019;-76
2023/03/03 07:03:24;;;;;;;10.70;7.75;;;;;;;5.55;65.53;94927.94;5105169;28;20049;-76
2023/03/03 07:05:51;;;;;;;12.38;8.27;;;;;;;5.61;66.12;94928.28;5105336;28;20023;-76
2023/03/03 07:08:21;;;;;;;13.43;8.93;;;;;;;5.69;66.31;94931.72;5087976;28;20028;-77
2023/03/03 07:10:48;;;;;;;12.45;8.82;;;;;;;5.72;65.93;94928.94;5108621;28;20031;-78
2023/03/03 07:13:17;;;;;;;15.60;9.15;;;;;;;5.76;65.78;94932.41;5088375;28;20024;-78
2023/03/03 07:15:42;;;;;;;12.75;8.50;;;;;;;5.72;65.35;94926.22;5105305;28;20015;-77
2023/03/03 07:18:38;;;;;;;14.88;9.93;;;;;;;5.76;65.64;94926.97;5088214;28;20047;-79
2023/03/03 07:21:16;;;;;;;15.50;10.50;;;;;;;5.83;65.93;94931.56;5087414;28;20027;-77
2023/03/03 07:23:43;;;;;;;17.58;10.80;;;;;;;5.85;66.10;94929.22;5105147;28;20060;-77
2023/03/03 07:26:12;;;;;;;14.75;9.85;;;;;;;5.90;66.04;94928.75;5104698;28;20020;-77
2023/03/03 07:28:41;;;;;;;14.65;10.05;;;;;;;6.02;66.04;94928.28;5087690;28;20031;-78
2023/03/03 07:31:21;;;;;;;14.02;9.77;;;;;;;6.09;65.65;94920.00;5104993;28;20035;-79
2023/03/03 07:33:46;;;;;;;14.40;8.80;;;;;;;6.23;65.03;94921.00;5087068;28;20469;-80
2023/03/03 07:36:34;;;;;;;16.95;9.48;;;;;;;6.29;64.94;94922.88;5105077;28;20088;-80
2023/03/03 07:39:04;;;;;;;14.50;9.65;;;;;;;6.28;64.73;94920.56;5087007;28;20043;-79
2023/03/03 07:41:31;;;;;;;12.43;8.27;;;;;;;6.24;63.47;94926.03;5104319;28;20548;-80
2023/03/03 07:44:16;;;;;;;10.20;8.23;;;;;;;5.96;62.64;94913.50;5087839;28;20028;-79
2023/03/03 07:46:44;;;;;;;11.05;8.30;;;;;;;5.88;64.01;94917.47;5105425;28;20497;-80
2023/03/03 07:49:22;;;;;;;11.07;8.13;;;;;;;5.81;64.61;94923.00;5087900;28;20047;-78
2023/03/03 07:51:52;;;;;;;11.77;8.48;;;;;;;5.83;64.93;94923.38;5105613;27;20055;-79
2023/03/03 07:54:39;;;;;;;13.80;8.80;;;;;;;5.89;65.22;94915.53;5104450;28;20027;-81
2023/03/03 07:57:10;;;;;;;12.07;9.00;;;;;;;5.97;65.48;94917.81;5104258;28;20447;-80
2023/03/03 07:59:37;;;;;;;13.93;9.15;;;;;;;6.00;65.57;94916.19;5105672;28;20024;-79
2023/03/03 08:02:05;;;;;;;13.43;9.43;;;;;;;6.09;65.56;94911.03;5104347;28;20042;-78
2023/03/03 08:04:36;;;;;;;12.52;9.25;;;;;;;6.18;65.28;94913.25;5103972;28;20073;-80
2023/03/03 08:07:02;;;;;;;12.35;9.77;;;;;;;6.25;65.01;94918.63;5104049;28;20042;-80
2023/03/03 08:09:38;;;;;;;15.90;10.13;;;;;;;6.33;64.37;94909.19;5103952;28;20028;-79
2023/03/03 08:12:06;;;;;;;13.80;8.15;;;;;;;6.34;63.91;94913.44;5103582;28;20509;-81
2023/03/03 08:14:36;;;;;;;12.88;9.05;;;;;;;6.39;63.75;94910.25;5107952;28;20110;-78
2023/03/03 08:17:25;;;;;;;15.38;9.32;;;;;;;6.48;63.71;94913.28;5088639;28;20023;-80
2023/03/03 08:19:52;;;;;;;12.55;9.45;;;;;;;6.54;63.94;94908.91;5104831;28;20023;-80
2023/03/03 08:22:38;;;;;;;13.93;9.38;;;;;;;6.59;64.24;94905.69;5104753;28;20104;-79
2023/03/03 08:25:04;;;;;;;14.45;9.43;;;;;;;6.69;63.94;94909.47;5104360;28;20058;-79
2023/03/03 08:27:29;;;;;;;14.60;9.90;;;;;;;6.58;63.55;94885.03;5105669;28;20227;-79
2023/03/03 08:29:55;;;;;;;12.50;9.57;;;;;;;6.85;63.69;94903.38;5104820;28;20031;-80
2023/03/03 08:32:20;;;;;;;13.55;10.00;;;;;;;6.92;63.42;94903.28;5104054;28;20019;-77
2023/03/03 08:34:46;;;;;;;14.55;9.65;;;;;;;6.90;63.29;94889.25;5102768;28;20473;-81
2023/03/03 08:37:11;;;;;;;16.10;10.20;;;;;;;6.96;63.06;94901.25;5103687;28;20077;-79
2023/03/03 08:39:37;;;;;;;15.32;10.60;;;;;;;7.06;63.28;94905.03;5103577;28;20019;-80
2023/03/03 08:42:02;;;;;;;14.63;9.35;;;;;;;7.12;62.83;94903.38;5104775;28;20091;-79
2023/03/03 08:44:27;;;;;;;14.10;9.82;;;;;;;7.15;62.54;94908.75;5103816;28;20020;-80
2023/03/03 08:46:53;;;;;;;12.50;8.70;;;;;;;7.12;61.99;94903.38;5103199;28;20110;-80
2023/03/03 08:49:18;;;;;;;12.70;8.68;;;;;;;6.98;61.89;94890.69;5103896;28;20028;-82
2023/03/03 08:51:45;;;;;;;12.30;8.02;;;;;;;7.05;62.19;94901.50;5103779;28;20103;-78
2023/03/03 08:54:10;;;;;;;14.55;10.15;;;;;;;7.08;62.31;94900.69;5086697;28;20147;-77
2023/03/03 08:56:36;;;;;;;15.10;9.98;;;;;;;7.13;62.47;94905.69;5103018;28;20406;-78
2023/03/03 08:59:01;;;;;;;13.88;9.48;;;;;;;7.15;63.14;94908.75;5104088;28;20031;-80
2023/03/03 09:01:26;;;;;;;15.05;9.85;;;;;;;7.16;61.75;94904.06;5102982;28;20094;-80
2023/03/03 09:03:52;;;;;;;15.10;10.07;;;;;;;7.25;61.84;94904.31;5103499;28;20378;-78
2023/03/03 09:06:17;;;;;;;12.55;9.45;;;;;;;7.32;61.57;94903.41;5103575;28;20327;-78
2023/03/03 09:08:43;;;;;;;13.90;9.00;;;;;;;7.38;61.80;94899.00;5102871;28;20019;-76
2023/03/03 09:11:11;;;;;;;13.75;9.32;;;;;;;7.44;62.15;94900.84;5103822;28;20020;-77
2023/03/03 09:13:37;;;;;;;13.25;8.80;;;;;;;7.57;60.85;94911.19;5102677;28;20452;-79
2023/03/03 09:16:10;;;;;;;12.98;8.88;;;;;;;7.55;61.09;94900.66;5103493;28;20028;-81
2023/03/03 09:18:37;;;;;;;14.18;9.85;;;;;;;7.59;61.25;94898.66;5102742;28;20524;-80
2023/03/03 09:21:22;;;;;;;16.60;9.25;;;;;;;7.56;60.63;94896.75;5107301;28;20113;-81
2023/03/03 09:23:58;;;;;;;13.65;8.75;;;;;;;7.43;60.36;94893.84;5086647;28;20028;-79
2023/03/03 09:26:29;;;;;;;13.93;9.10;;;;;;;7.39;60.27;94895.84;5102376;28;20532;-79
2023/03/03 09:29:12;;;;;;;12.52;8.82;;;;;;;7.33;60.95;94902.22;5105018;28;20051;-81
2023/03/03 09:31:41;;;;;;;14.10;9.25;;;;;;;7.36;61.29;94899.44;5103981;28;20031;-79
2023/03/03 09:34:37;;;;;;;12.80;8.55;;;;;;;7.37;60.89;94897.47;5102508;28;20092;-77
2023/03/03 09:37:23;;;;;;;12.65;8.82;;;;;;;7.39;60.88;94903.28;5103483;28;20454;-79
2023/03/03 09:39:58;;;;;;;14.98;9.90;;;;;;;7.43;61.08;94906.75;5102521;28;20027;-79
2023/03/03 09:42:55;;;;;;;13.50;8.95;;;;;;;7.51;60.23;94901.91;5103215;28;20032;-80
2023/03/03 09:45:21;;;;;;;12.85;8.70;;;;;;;7.53;60.29;94905.78;5103738;28;20066;-83
2023/03/03 09:48:04;;;;;;;11.45;8.35;;;;;;;7.58;60.22;94905.31;5106497;28;20031;-87
2023/03/03 09:50:39;;;;;;;13.20;9.40;;;;;;;7.63;60.54;94907.56;5108741;28;20438;-86
2023/03/03 09:53:10;;;;;;;11.95;8.13;;;;;;;7.75;60.23;94900.72;5106669;28;20106;-87
2023/03/03 09:55:46;;;;;;;13.13;8.57;;;;;;;7.77;59.75;94897.56;5108109;28;20499;-87
2023/03/03 09:58:33;;;;;;;10.65;7.97;;;;;;;7.83;59.90;94901.34;5108446;28;20557;-79
2023/03/03 10:01:17;;;;;;;14.75;8.65;;;;;;;7.89;59.71;94899.66;5106148;28;20086;-79
2023/03/03 10:03:46;;;;;;;11.35;8.02;;;;;;;7.96;59.84;94891.31;5108225;28;20070;-79
2023/03/03 10:06:26;;;;;;;10.27;7.68;;;;;;;7.97;58.97;94904.59;5106159;28;20041;-79
2023/03/03 10:09:17;;;;;;;11.55;7.93;;;;;;;7.94;58.87;94889.00;5106200;27;20051;-81
2023/03/03 10:11:49;;;;;;;11.80;8.23;;;;;;;8.10;58.96;94890.28;5088851;28;20089;-80
2023/03/03 10:14:33;;;;;;;13.77;7.82;;;;;;;8.15;59.02;94889.78;5106120;28;20102;-79
2023/03/03 10:17:25;;;;;;;12.40;8.35;;;;;;;8.12;58.86;94896.09;5107866;28;20030;-79
2023/03/03 10:20:08;;;;;;;11.63;8.63;;;;;;;8.14;59.02;94889.00;5101630;28;20044;-80
2023/03/03 10:22:47;;;;;;;12.25;8.73;;;;;;;8.14;59.21;94886.28;5107232;28;20050;-79
2023/03/03 10:25:49;;;;;;;13.40;9.95;;;;;;;8.20;59.69;94887.31;5109005;28;20038;-80
2023/03/03 10:28:30;;;;;;;14.07;9.20;;;;;;;8.23;59.41;94883.72;5106982;28;20135;-80
2023/03/03 10:31:18;;;;;;;12.98;9.85;;;;;;;8.28;60.87;94887.16;5107294;28;20031;-82
2023/03/03 10:34:20;;;;;;;14.60;9.30;;;;;;;8.38;59.30;94883.47;5107421;28;20051;-85
2023/03/03 10:37:01;;;;;;;13.07;9.43;;;;;;;8.34;58.42;94877.25;5107304;27;20048;-84
2023/03/03 10:39:57;;;;;;;13.63;9.25;;;;;;;8.30;58.11;94873.81;5105769;28;20027;-85
2023/03/03 10:42:55;;;;;;;12.90;9.40;;;;;;;8.22;58.41;94870.47;5106444;28;20035;-85
2023/03/03 10:45:43;;;;;;;14.18;10.25;;;;;;;8.20;58.83;94876.38;5099282;28;20489;-82
2023/03/03 10:48:44;;;;;;;19.13;12.00;;;;;;;8.21;58.95;94869.69;5089169;28;20033;-82
2023/03/03 10:51:16;;;;;;;17.42;11.82;;;;;;;8.13;59.19;94868.28;5096025;28;20051;-82
2023/03/03 10:54:18;;;;;;;18.80;12.85;;;;;;;8.14;59.95;94869.06;5106304;28;20110;-82
2023/03/03 10:57:11;;;;;;;19.20;12.80;;;;;;;8.18;59.43;94859.56;5106252;28;20031;-81
2023/03/03 10:59:36;;;;;;;21.13;13.35;;;;;;;8.14;59.09;94858.91;5107244;28;20028;-82
2023/03/03 11:02:11;;;;;;;20.77;13.52;;;;;;;8.10;59.32;94860.94;5105768;28;20035;-84
2023/03/03 11:04:49;;;;;;;21.83;14.25;;;;;;;8.03;59.97;94863.81;5106017;28;20106;-84
2023/03/03 11:07:49;;;;;;;22.27;13.75;;;;;;;7.93;60.33;94856.59;5107029;28;20085;-83
2023/03/03 11:10:32;;;;;;;20.58;12.88;;;;;;;7.93;60.45;94862.06;5105101;28;20543;-83
2023/03/03 11:13:10;;;;;;;17.55;12.18;;;;;;;7.90;61.14;94854.66;5107269;28;20026;-81
2023/03/03 11:15:49;;;;;;;17.27;11.65;;;;;;;7.95;60.73;94849.47;5106813;28;20027;-81
2023/03/03 11:18:22;;;;;;;15.15;11.43;;;;;;;7.98;60.60;94839.66;5106148;28;20497;-85
2023/03/03 11:20:55;;;;;;;19.38;12.90;;;;;;;8.04;60.38;94840.72;5105383;28;20034;-82
2023/03/03 11:23:53;;;;;;;19.58;12.52;;;;;;;8.13;59.89;94840.91;5104620;28;20493;-84
2023/03/03 11:27:02;;;;;;;18.10;12.23;;;;;;;8.22;60.32;94838.38;5106168;28;20040;-87
2023/03/03 11:29:50;;;;;;;15.52;11.52;;;;;;;7.97;59.31;94833.44;5063875;28;20037;-83
2023/03/03 11:32:21;;;;;;;15.48;10.93;;;;;;;7.88;60.41;94830.47;5104537;28;20043;-80
2023/03/03 11:35:23;;;;;;;15.32;12.13;;;;;;;7.84;61.04;94834.47;5105397;28;20031;-78
2023/03/03 11:37:57;;;;;;;17.27;11.98;;;;;;;7.80;61.07;94834.56;5106288;28;20369;-83
2023/03/03 11:40:31;;;;;;;17.10;12.15;;;;;;;7.84;61.52;94835.22;5104061;28;20390;-75
2023/03/03 11:43:02;;;;;;;16.70;11.52;;;;;;;7.87;61.35;94819.94;5106155;28;20035;-74
2023/03/03 11:45:41;;;;;;;16.20;11.75;;;;;;;7.90;61.30;94830.03;5087290;28;20023;-76
2023/03/03 11:48:42;;;;;;;17.55;12.80;;;;;;;7.87;61.18;94834.41;5104050;28;20066;-74
2023/03/03 11:51:12;;;;;;;15.43;11.43;;;;;;;7.81;61.71;94827.13;5045982;28;20029;-79
2023/03/03 11:53:55;;;;;;;14.30;11.07;;;;;;;7.89;61.74;94828.50;5062410;28;20028;-76
2023/03/03 11:56:33;;;;;;;15.15;11.20;;;;;;;7.91;61.98;94821.44;5046024;28;20090;-76